sensor_id;sensor_type;location;lat;lon;timestamp;pressure;altitude;pressure_sealevel;temperature;humidity
47811;BME280;33575;52.600;7.318;2023-04-22T00:01:15;100763.03;;;14.20;83.52
47811;BME280;33575;52.600;7.318;2023-04-22T00:03:46;100757.64;;;14.15;84.31
47811;BME280;33575;52.600;7.318;2023-04-22T00:06:16;100755.96;;;14.07;85.06
47811;BME280;33575;52.600;7.318;2023-04-22T00:08:46;100758.57;;;14.05;84.49
47811;BME280;33575;52.600;7.318;2023-04-22T00:11:16;100760.47;;;14.04;84.48
47811;BME280;33575;52.600;7.318;2023-04-22T00:13:47;100758.90;;;14.02;84.68
47811;BME280;33575;52.600;7.318;2023-04-22T00:16:18;100761.57;;;14.02;84.33
47811;BME280;33575;52.600;7.318;2023-04-22T00:18:48;100760.68;;;14.01;84.90
47811;BME280;33575;52.600;7.318;2023-04-22T00:21:18;100758.80;;;13.97;85.82
47811;BME280;33575;52.600;7.318;2023-04-22T00:23:49;100757.57;;;13.95;85.12
47811;BME280;33575;52.600;7.318;2023-04-22T00:26:20;100754.13;;;13.91;86.36
47811;BME280;33575;52.600;7.318;2023-04-22T00:28:50;100746.43;;;13.77;87.03
47811;BME280;33575;52.600;7.318;2023-04-22T00:31:20;100745.13;;;13.74;86.39
47811;BME280;33575;52.600;7.318;2023-04-22T00:33:51;100743.65;;;13.66;87.19
47811;BME280;33575;52.600;7.318;2023-04-22T00:36:22;100736.81;;;13.53;88.38
47811;BME280;33575;52.600;7.318;2023-04-22T00:38:52;100737.79;;;13.46;87.97
47811;BME280;33575;52.600;7.318;2023-04-22T00:41:24;100735.11;;;13.43;88.09
47811;BME280;33575;52.600;7.318;2023-04-22T00:43:53;100729.89;;;13.43;87.94
47811;BME280;33575;52.600;7.318;2023-04-22T00:46:24;100724.62;;;13.41;87.78
47811;BME280;33575;52.600;7.318;2023-04-22T00:48:54;100724.28;;;13.37;88.37
47811;BME280;33575;52.600;7.318;2023-04-22T00:51:24;100721.65;;;13.31;88.04
47811;BME280;33575;52.600;7.318;2023-04-22T00:53:55;100724.82;;;13.34;87.14
47811;BME280;33575;52.600;7.318;2023-04-22T00:56:26;100723.54;;;13.36;87.06
47811;BME280;33575;52.600;7.318;2023-04-22T00:58:56;100724.93;;;13.38;86.67
47811;BME280;33575;52.600;7.318;2023-04-22T01:01:27;100726.72;;;13.40;86.64
47811;BME280;33575;52.600;7.318;2023-04-22T01:03:57;100725.03;;;13.41;86.45
47811;BME280;33575;52.600;7.318;2023-04-22T01:06:28;100728.82;;;13.43;85.89
47811;BME280;33575;52.600;7.318;2023-04-22T01:08:57;100729.59;;;13.43;85.66
47811;BME280;33575;52.600;7.318;2023-04-22T01:11:29;100726.38;;;13.41;85.27
47811;BME280;33575;52.600;7.318;2023-04-22T01:13:58;100720.86;;;13.37;84.94
47811;BME280;33575;52.600;7.318;2023-04-22T01:16:29;100724.02;;;13.36;84.56
47811;BME280;33575;52.600;7.318;2023-04-22T01:19:00;100721.76;;;13.30;84.56
47811;BME280;33575;52.600;7.318;2023-04-22T01:21:31;100721.03;;;13.24;84.29
47811;BME280;33575;52.600;7.318;2023-04-22T01:24:01;100714.71;;;13.20;84.02
47811;BME280;33575;52.600;7.318;2023-04-22T01:26:32;100714.36;;;13.18;83.92
47811;BME280;33575;52.600;7.318;2023-04-22T01:29:03;100710.37;;;13.13;83.91
47811;BME280;33575;52.600;7.318;2023-04-22T01:31:33;100708.05;;;13.09;83.79
47811;BME280;33575;52.600;7.318;2023-04-22T01:34:02;100711.95;;;13.04;84.19
47811;BME280;33575;52.600;7.318;2023-04-22T01:36:32;100711.12;;;13.01;84.18
47811;BME280;33575;52.600;7.318;2023-04-22T01:39:03;100706.64;;;12.96;84.17
47811;BME280;33575;52.600;7.318;2023-04-22T01:41:33;100706.93;;;12.89;84.39
47811;BME280;33575;52.600;7.318;2023-04-22T01:44:04;100704.78;;;12.84;84.46
47811;BME280;33575;52.600;7.318;2023-04-22T01:46:34;100705.82;;;12.80;85.10
47811;BME280;33575;52.600;7.318;2023-04-22T01:49:05;100704.74;;;12.72;85.25
47811;BME280;33575;52.600;7.318;2023-04-22T01:51:36;100701.27;;;12.64;85.35
47811;BME280;33575;52.600;7.318;2023-04-22T01:54:07;100698.56;;;12.60;85.23
47811;BME280;33575;52.600;7.318;2023-04-22T01:56:37;100696.43;;;12.57;85.06
47811;BME280;33575;52.600;7.318;2023-04-22T01:59:07;100694.82;;;12.52;85.12
47811;BME280;33575;52.600;7.318;2023-04-22T02:01:38;100695.80;;;12.45;85.51
47811;BME280;33575;52.600;7.318;2023-04-22T02:04:08;100689.33;;;12.32;86.18
47811;BME280;33575;52.600;7.318;2023-04-22T02:06:38;100687.09;;;12.22;86.78
47811;BME280;33575;52.600;7.318;2023-04-22T02:09:08;100684.24;;;12.17;86.54
47811;BME280;33575;52.600;7.318;2023-04-22T02:11:39;100684.57;;;12.11;86.80
47811;BME280;33575;52.600;7.318;2023-04-22T02:14:09;100681.70;;;12.10;86.15
47811;BME280;33575;52.600;7.318;2023-04-22T02:16:40;100679.85;;;12.11;86.02
47811;BME280;33575;52.600;7.318;2023-04-22T02:19:10;100676.47;;;12.10;85.88
47811;BME280;33575;52.600;7.318;2023-04-22T02:21:41;100674.59;;;12.09;85.30
47811;BME280;33575;52.600;7.318;2023-04-22T02:24:11;100674.24;;;12.09;84.81
47811;BME280;33575;52.600;7.318;2023-04-22T02:26:42;100671.62;;;12.04;84.99
47811;BME280;33575;52.600;7.318;2023-04-22T02:29:12;100672.25;;;12.00;84.86
47811;BME280;33575;52.600;7.318;2023-04-22T02:31:43;100669.92;;;11.98;84.57
47811;BME280;33575;52.600;7.318;2023-04-22T02:34:13;100664.50;;;11.97;84.38
47811;BME280;33575;52.600;7.318;2023-04-22T02:36:43;100664.24;;;11.95;83.93
47811;BME280;33575;52.600;7.318;2023-04-22T02:39:14;100663.70;;;11.86;83.48
47811;BME280;33575;52.600;7.318;2023-04-22T02:41:44;100670.62;;;11.75;83.26
47811;BME280;33575;52.600;7.318;2023-04-22T02:44:15;100671.51;;;11.67;83.54
47811;BME280;33575;52.600;7.318;2023-04-22T02:46:45;100675.65;;;11.63;83.74
47811;BME280;33575;52.600;7.318;2023-04-22T02:49:16;100678.66;;;11.60;83.84
47811;BME280;33575;52.600;7.318;2023-04-22T02:51:46;100680.20;;;11.57;83.64
47811;BME280;33575;52.600;7.318;2023-04-22T02:54:16;100680.82;;;11.57;83.52
47811;BME280;33575;52.600;7.318;2023-04-22T02:56:47;100681.44;;;11.53;83.50
47811;BME280;33575;52.600;7.318;2023-04-22T02:59:18;100686.94;;;11.39;83.86
47811;BME280;33575;52.600;7.318;2023-04-22T03:01:49;100686.52;;;11.22;84.87
47811;BME280;33575;52.600;7.318;2023-04-22T03:04:19;100686.36;;;11.14;84.63
47811;BME280;33575;52.600;7.318;2023-04-22T03:06:50;100685.32;;;11.09;84.16
47811;BME280;33575;52.600;7.318;2023-04-22T03:09:20;100680.64;;;11.10;83.92
47811;BME280;33575;52.600;7.318;2023-04-22T03:11:51;100683.80;;;11.07;84.38
47811;BME280;33575;52.600;7.318;2023-04-22T03:14:21;100673.90;;;11.01;84.89
47811;BME280;33575;52.600;7.318;2023-04-22T03:16:52;100670.31;;;10.92;85.50
47811;BME280;33575;52.600;7.318;2023-04-22T03:19:23;100668.22;;;10.83;85.79
47811;BME280;33575;52.600;7.318;2023-04-22T03:21:53;100670.55;;;10.79;85.93
47811;BME280;33575;52.600;7.318;2023-04-22T03:24:24;100671.80;;;10.80;85.86
47811;BME280;33575;52.600;7.318;2023-04-22T03:26:55;100672.37;;;10.79;86.10
47811;BME280;33575;52.600;7.318;2023-04-22T03:29:25;100671.72;;;10.82;85.74
47811;BME280;33575;52.600;7.318;2023-04-22T03:31:56;100673.01;;;10.87;85.51
47811;BME280;33575;52.600;7.318;2023-04-22T03:34:26;100668.94;;;10.89;85.25
47811;BME280;33575;52.600;7.318;2023-04-22T03:36:57;100666.94;;;10.88;84.79
47811;BME280;33575;52.600;7.318;2023-04-22T03:39:27;100661.55;;;10.84;84.59
47811;BME280;33575;52.600;7.318;2023-04-22T03:41:58;100656.73;;;10.78;84.38
47811;BME280;33575;52.600;7.318;2023-04-22T03:44:28;100652.50;;;10.72;84.27
47811;BME280;33575;52.600;7.318;2023-04-22T03:46:59;100647.67;;;10.68;84.63
47811;BME280;33575;52.600;7.318;2023-04-22T03:49:29;100647.84;;;10.67;84.62
47811;BME280;33575;52.600;7.318;2023-04-22T03:52:00;100641.77;;;10.65;84.83
47811;BME280;33575;52.600;7.318;2023-04-22T03:54:30;100640.00;;;10.64;84.92
47811;BME280;33575;52.600;7.318;2023-04-22T03:57:00;100635.99;;;10.66;85.28
47811;BME280;33575;52.600;7.318;2023-04-22T03:59:31;100635.96;;;10.68;85.21
47811;BME280;33575;52.600;7.318;2023-04-22T04:02:02;100632.36;;;10.72;85.13
47811;BME280;33575;52.600;7.318;2023-04-22T04:04:33;100626.41;;;10.73;84.93
47811;BME280;33575;52.600;7.318;2023-04-22T04:07:03;100622.84;;;10.72;84.58
47811;BME280;33575;52.600;7.318;2023-04-22T04:09:33;100619.32;;;10.62;84.40
47811;BME280;33575;52.600;7.318;2023-04-22T04:12:04;100622.86;;;10.53;84.57
47811;BME280;33575;52.600;7.318;2023-04-22T04:14:35;100620.09;;;10.47;84.79
47811;BME280;33575;52.600;7.318;2023-04-22T04:17:05;100616.54;;;10.42;84.93
47811;BME280;33575;52.600;7.318;2023-04-22T04:19:36;100616.43;;;10.40;84.80
47811;BME280;33575;52.600;7.318;2023-04-22T04:22:06;100616.84;;;10.41;84.94
47811;BME280;33575;52.600;7.318;2023-04-22T04:24:37;100619.07;;;10.44;85.15
47811;BME280;33575;52.600;7.318;2023-04-22T04:27:08;100617.20;;;10.46;85.19
47811;BME280;33575;52.600;7.318;2023-04-22T04:29:38;100617.87;;;10.48;85.30
47811;BME280;33575;52.600;7.318;2023-04-22T04:32:08;100615.70;;;10.48;85.37
47811;BME280;33575;52.600;7.318;2023-04-22T04:34:39;100612.08;;;10.50;85.51
47811;BME280;33575;52.600;7.318;2023-04-22T04:37:09;100610.43;;;10.51;85.93
47811;BME280;33575;52.600;7.318;2023-04-22T04:39:41;100613.01;;;10.52;86.29
47811;BME280;33575;52.600;7.318;2023-04-22T04:42:11;100609.49;;;10.53;86.69
47811;BME280;33575;52.600;7.318;2023-04-22T04:44:42;100610.30;;;10.55;86.73
47811;BME280;33575;52.600;7.318;2023-04-22T04:47:11;100610.81;;;10.53;86.90
47811;BME280;33575;52.600;7.318;2023-04-22T04:49:42;100613.97;;;10.52;86.98
47811;BME280;33575;52.600;7.318;2023-04-22T04:52:12;100615.79;;;10.47;87.87
47811;BME280;33575;52.600;7.318;2023-04-22T04:54:43;100617.52;;;10.47;87.68
47811;BME280;33575;52.600;7.318;2023-04-22T04:57:13;100615.07;;;10.46;88.53
47811;BME280;33575;52.600;7.318;2023-04-22T04:59:44;100615.44;;;10.50;88.51
47811;BME280;33575;52.600;7.318;2023-04-22T05:02:14;100618.06;;;10.57;88.64
47811;BME280;33575;52.600;7.318;2023-04-22T05:04:45;100619.49;;;10.65;88.73
47811;BME280;33575;52.600;7.318;2023-04-22T05:07:15;100619.63;;;10.72;88.71
47811;BME280;33575;52.600;7.318;2023-04-22T05:09:45;100622.15;;;10.78;89.17
47811;BME280;33575;52.600;7.318;2023-04-22T05:12:16;100619.40;;;10.84;88.71
47811;BME280;33575;52.600;7.318;2023-04-22T05:14:46;100617.59;;;10.88;88.82
47811;BME280;33575;52.600;7.318;2023-04-22T05:17:16;100618.27;;;10.94;88.63
47811;BME280;33575;52.600;7.318;2023-04-22T05:19:47;100623.15;;;11.00;88.42
47811;BME280;33575;52.600;7.318;2023-04-22T05:22:18;100628.76;;;11.05;88.45
47811;BME280;33575;52.600;7.318;2023-04-22T05:24:48;100627.93;;;11.08;88.27
47811;BME280;33575;52.600;7.318;2023-04-22T05:27:18;100629.98;;;11.12;88.61
47811;BME280;33575;52.600;7.318;2023-04-22T05:29:49;100630.45;;;11.16;88.31
47811;BME280;33575;52.600;7.318;2023-04-22T05:32:20;100625.85;;;11.20;88.20
47811;BME280;33575;52.600;7.318;2023-04-22T05:34:51;100625.16;;;11.24;88.53
47811;BME280;33575;52.600;7.318;2023-04-22T05:37:21;100628.30;;;11.26;88.37
47811;BME280;33575;52.600;7.318;2023-04-22T05:39:52;100629.79;;;11.28;88.52
47811;BME280;33575;52.600;7.318;2023-04-22T05:42:22;100627.45;;;11.29;88.61
47811;BME280;33575;52.600;7.318;2023-04-22T05:44:52;100624.87;;;11.30;88.51
47811;BME280;33575;52.600;7.318;2023-04-22T05:47:23;100622.85;;;11.31;89.27
47811;BME280;33575;52.600;7.318;2023-04-22T05:49:53;100620.06;;;11.34;89.07
47811;BME280;33575;52.600;7.318;2023-04-22T05:52:23;100616.31;;;11.38;89.37
47811;BME280;33575;52.600;7.318;2023-04-22T05:54:54;100614.19;;;11.42;89.40
47811;BME280;33575;52.600;7.318;2023-04-22T05:57:25;100611.97;;;11.48;89.65
47811;BME280;33575;52.600;7.318;2023-04-22T05:59:55;100616.13;;;11.53;89.45
47811;BME280;33575;52.600;7.318;2023-04-22T06:02:26;100616.41;;;11.59;89.56
47811;BME280;33575;52.600;7.318;2023-04-22T06:04:58;100612.57;;;11.66;89.77
47811;BME280;33575;52.600;7.318;2023-04-22T06:07:27;100613.07;;;11.72;89.75
47811;BME280;33575;52.600;7.318;2023-04-22T06:10:03;100617.92;;;11.78;89.41
47811;BME280;33575;52.600;7.318;2023-04-22T06:12:28;100618.27;;;11.80;89.45
47811;BME280;33575;52.600;7.318;2023-04-22T06:14:59;100613.90;;;11.82;89.70
47811;BME280;33575;52.600;7.318;2023-04-22T06:17:29;100609.29;;;11.87;89.69
47811;BME280;33575;52.600;7.318;2023-04-22T06:20:00;100610.10;;;11.93;89.68
47811;BME280;33575;52.600;7.318;2023-04-22T06:22:30;100609.46;;;11.99;89.65
47811;BME280;33575;52.600;7.318;2023-04-22T06:25:00;100614.59;;;12.05;89.56
47811;BME280;33575;52.600;7.318;2023-04-22T06:27:31;100615.14;;;12.09;89.56
47811;BME280;33575;52.600;7.318;2023-04-22T06:30:01;100620.59;;;12.08;89.82
47811;BME280;33575;52.600;7.318;2023-04-22T06:32:32;100621.46;;;12.06;90.05
47811;BME280;33575;52.600;7.318;2023-04-22T06:35:03;100618.08;;;12.07;90.23
47811;BME280;33575;52.600;7.318;2023-04-22T06:37:33;100617.52;;;12.10;90.27
47811;BME280;33575;52.600;7.318;2023-04-22T06:40:04;100615.46;;;12.16;90.24
47811;BME280;33575;52.600;7.318;2023-04-22T06:42:33;100615.45;;;12.19;90.42
47811;BME280;33575;52.600;7.318;2023-04-22T06:45:04;100611.96;;;12.25;90.35
47811;BME280;33575;52.600;7.318;2023-04-22T06:47:34;100605.50;;;12.29;90.19
47811;BME280;33575;52.600;7.318;2023-04-22T06:50:05;100605.19;;;12.33;90.31
47811;BME280;33575;52.600;7.318;2023-04-22T06:52:35;100601.72;;;12.33;90.64
47811;BME280;33575;52.600;7.318;2023-04-22T06:55:06;100599.43;;;12.35;90.71
47811;BME280;33575;52.600;7.318;2023-04-22T06:57:36;100605.28;;;12.36;90.92
47811;BME280;33575;52.600;7.318;2023-04-22T07:00:07;100607.64;;;12.40;91.09
47811;BME280;33575;52.600;7.318;2023-04-22T07:02:38;100608.25;;;12.44;91.42
47811;BME280;33575;52.600;7.318;2023-04-22T07:05:08;100606.97;;;12.51;91.42
47811;BME280;33575;52.600;7.318;2023-04-22T07:07:38;100608.80;;;12.58;91.17
47811;BME280;33575;52.600;7.318;2023-04-22T07:10:09;100606.37;;;12.59;91.57
47811;BME280;33575;52.600;7.318;2023-04-22T07:12:39;100606.08;;;12.67;91.09
47811;BME280;33575;52.600;7.318;2023-04-22T07:15:10;100605.98;;;12.75;91.34
47811;BME280;33575;52.600;7.318;2023-04-22T07:17:40;100605.36;;;12.83;91.51
47811;BME280;33575;52.600;7.318;2023-04-22T07:20:11;100605.53;;;12.91;91.56
47811;BME280;33575;52.600;7.318;2023-04-22T07:22:41;100602.42;;;13.00;91.18
47811;BME280;33575;52.600;7.318;2023-04-22T07:25:11;100597.93;;;13.10;91.53
47811;BME280;33575;52.600;7.318;2023-04-22T07:27:42;100593.39;;;13.22;91.09
47811;BME280;33575;52.600;7.318;2023-04-22T07:30:13;100588.51;;;13.34;90.92
47811;BME280;33575;52.600;7.318;2023-04-22T07:32:43;100587.83;;;13.45;90.85
47811;BME280;33575;52.600;7.318;2023-04-22T07:35:13;100590.95;;;13.52;90.76
47811;BME280;33575;52.600;7.318;2023-04-22T07:37:44;100593.20;;;13.55;90.83
47811;BME280;33575;52.600;7.318;2023-04-22T07:40:14;100593.57;;;13.64;90.62
47811;BME280;33575;52.600;7.318;2023-04-22T07:42:45;100596.77;;;13.70;91.02
47811;BME280;33575;52.600;7.318;2023-04-22T07:45:15;100597.55;;;13.78;91.53
47811;BME280;33575;52.600;7.318;2023-04-22T07:47:46;100596.59;;;13.86;90.99
47811;BME280;33575;52.600;7.318;2023-04-22T07:50:16;100597.62;;;13.97;90.92
47811;BME280;33575;52.600;7.318;2023-04-22T07:52:47;100593.68;;;14.08;90.84
47811;BME280;33575;52.600;7.318;2023-04-22T07:55:17;100592.21;;;14.16;90.81
47811;BME280;33575;52.600;7.318;2023-04-22T07:57:48;100595.87;;;14.24;90.30
47811;BME280;33575;52.600;7.318;2023-04-22T08:00:18;100601.17;;;14.28;90.18
47811;BME280;33575;52.600;7.318;2023-04-22T08:02:49;100599.51;;;14.28;90.14
47811;BME280;33575;52.600;7.318;2023-04-22T08:05:19;100592.12;;;14.30;89.80
47811;BME280;33575;52.600;7.318;2023-04-22T08:07:49;100582.86;;;14.32;90.02
47811;BME280;33575;52.600;7.318;2023-04-22T08:10:20;100581.18;;;14.38;89.28
47811;BME280;33575;52.600;7.318;2023-04-22T08:12:50;100575.73;;;14.48;89.00
47811;BME280;33575;52.600;7.318;2023-04-22T08:15:21;100573.05;;;14.58;88.94
47811;BME280;33575;52.600;7.318;2023-04-22T08:17:52;100568.36;;;14.68;89.13
47811;BME280;33575;52.600;7.318;2023-04-22T08:20:23;100565.20;;;14.77;88.61
47811;BME280;33575;52.600;7.318;2023-04-22T08:22:52;100573.15;;;14.83;88.28
47811;BME280;33575;52.600;7.318;2023-04-22T08:25:23;100574.75;;;14.83;88.40
47811;BME280;33575;52.600;7.318;2023-04-22T08:27:53;100565.38;;;14.90;88.15
47811;BME280;33575;52.600;7.318;2023-04-22T08:30:23;100563.00;;;14.99;87.50
47811;BME280;33575;52.600;7.318;2023-04-22T08:32:53;100560.90;;;15.09;87.55
47811;BME280;33575;52.600;7.318;2023-04-22T08:35:23;100566.48;;;15.27;87.71
47811;BME280;33575;52.600;7.318;2023-04-22T08:37:53;100565.24;;;15.37;87.44
47811;BME280;33575;52.600;7.318;2023-04-22T08:40:24;100563.19;;;15.46;87.18
47811;BME280;33575;52.600;7.318;2023-04-22T08:42:55;100565.91;;;15.55;88.03
47811;BME280;33575;52.600;7.318;2023-04-22T08:45:25;100562.03;;;15.62;85.94
47811;BME280;33575;52.600;7.318;2023-04-22T08:47:56;100552.65;;;15.71;87.20
47811;BME280;33575;52.600;7.318;2023-04-22T08:50:26;100544.59;;;15.79;86.08
47811;BME280;33575;52.600;7.318;2023-04-22T08:52:56;100543.25;;;15.97;86.60
47811;BME280;33575;52.600;7.318;2023-04-22T08:55:26;100537.16;;;16.13;85.76
47811;BME280;33575;52.600;7.318;2023-04-22T08:57:58;100536.10;;;16.23;85.97
47811;BME280;33575;52.600;7.318;2023-04-22T09:00:27;100533.27;;;16.24;82.82
47811;BME280;33575;52.600;7.318;2023-04-22T09:03:00;100526.48;;;16.30;84.56
47811;BME280;33575;52.600;7.318;2023-04-22T09:05:32;100528.61;;;16.33;83.24
47811;BME280;33575;52.600;7.318;2023-04-22T09:07:58;100529.34;;;16.32;82.82
47811;BME280;33575;52.600;7.318;2023-04-22T09:10:29;100528.95;;;16.41;83.98
47811;BME280;33575;52.600;7.318;2023-04-22T09:12:59;100526.72;;;16.42;83.01
47811;BME280;33575;52.600;7.318;2023-04-22T09:15:29;100532.36;;;16.52;83.04
47811;BME280;33575;52.600;7.318;2023-04-22T09:18:01;100528.14;;;16.57;82.69
47811;BME280;33575;52.600;7.318;2023-04-22T09:20:30;100523.90;;;16.73;83.14
47811;BME280;33575;52.600;7.318;2023-04-22T09:23:03;100527.75;;;16.89;83.21
47811;BME280;33575;52.600;7.318;2023-04-22T09:25:32;100524.55;;;17.03;83.05
47811;BME280;33575;52.600;7.318;2023-04-22T09:28:00;100526.73;;;17.12;83.18
47811;BME280;33575;52.600;7.318;2023-04-22T09:30:32;100528.02;;;17.23;81.80
47811;BME280;33575;52.600;7.318;2023-04-22T09:33:02;100530.12;;;17.34;80.71
47811;BME280;33575;52.600;7.318;2023-04-22T09:35:32;100528.49;;;17.45;81.46
47811;BME280;33575;52.600;7.318;2023-04-22T09:38:03;100519.22;;;17.53;79.39
47811;BME280;33575;52.600;7.318;2023-04-22T09:40:32;100512.57;;;17.67;80.22
47811;BME280;33575;52.600;7.318;2023-04-22T09:43:06;100504.72;;;17.73;79.10
47811;BME280;33575;52.600;7.318;2023-04-22T09:45:34;100505.35;;;17.89;79.55
47811;BME280;33575;52.600;7.318;2023-04-22T09:48:06;100506.49;;;17.89;78.25
47811;BME280;33575;52.600;7.318;2023-04-22T09:50:33;100498.36;;;17.76;77.50
47811;BME280;33575;52.600;7.318;2023-04-22T09:53:05;100496.76;;;17.70;77.74
47811;BME280;33575;52.600;7.318;2023-04-22T09:55:35;100492.90;;;17.73;77.61
47811;BME280;33575;52.600;7.318;2023-04-22T09:58:06;100496.47;;;17.81;77.59
47811;BME280;33575;52.600;7.318;2023-04-22T10:00:36;100498.68;;;17.83;77.57
47811;BME280;33575;52.600;7.318;2023-04-22T10:03:05;100492.43;;;17.91;79.36
47811;BME280;33575;52.600;7.318;2023-04-22T10:05:36;100488.12;;;17.87;76.71
47811;BME280;33575;52.600;7.318;2023-04-22T10:08:06;100484.05;;;17.94;77.63
47811;BME280;33575;52.600;7.318;2023-04-22T10:10:36;100477.09;;;17.99;77.54
47811;BME280;33575;52.600;7.318;2023-04-22T10:13:06;100471.66;;;18.02;77.04
47811;BME280;33575;52.600;7.318;2023-04-22T10:15:38;100469.37;;;18.06;76.75
47811;BME280;33575;52.600;7.318;2023-04-22T10:18:09;100468.61;;;18.08;77.05
47811;BME280;33575;52.600;7.318;2023-04-22T10:20:38;100471.01;;;18.00;76.52
47811;BME280;33575;52.600;7.318;2023-04-22T10:23:13;100468.54;;;18.04;75.88
47811;BME280;33575;52.600;7.318;2023-04-22T10:25:38;100472.66;;;18.01;76.17
47811;BME280;33575;52.600;7.318;2023-04-22T10:28:09;100471.90;;;18.07;76.16
47811;BME280;33575;52.600;7.318;2023-04-22T10:30:38;100473.67;;;18.17;75.83
47811;BME280;33575;52.600;7.318;2023-04-22T10:35:39;100472.18;;;18.21;73.78
47811;BME280;33575;52.600;7.318;2023-04-22T10:38:09;100474.13;;;18.33;76.39
47811;BME280;33575;52.600;7.318;2023-04-22T10:43:11;100474.04;;;18.68;76.88
47811;BME280;33575;52.600;7.318;2023-04-22T10:45:40;100473.27;;;18.84;75.96
47811;BME280;33575;52.600;7.318;2023-04-22T10:48:12;100472.05;;;18.90;74.90
47811;BME280;33575;52.600;7.318;2023-04-22T10:50:41;100470.35;;;19.01;73.97
47811;BME280;33575;52.600;7.318;2023-04-22T10:55:48;100469.69;;;19.08;72.18
47811;BME280;33575;52.600;7.318;2023-04-22T10:58:17;100469.90;;;19.08;72.68
47811;BME280;33575;52.600;7.318;2023-04-22T11:00:47;100464.89;;;19.07;73.01
47811;BME280;33575;52.600;7.318;2023-04-22T11:03:15;100459.78;;;19.00;72.78
47811;BME280;33575;52.600;7.318;2023-04-22T11:05:44;100453.76;;;19.01;73.75
47811;BME280;33575;52.600;7.318;2023-04-22T11:08:19;100454.71;;;19.00;73.23
47811;BME280;33575;52.600;7.318;2023-04-22T11:10:47;100454.59;;;19.27;72.90
47811;BME280;33575;52.600;7.318;2023-04-22T11:13:17;100451.13;;;19.49;72.61
47811;BME280;33575;52.600;7.318;2023-04-22T11:15:47;100446.77;;;19.40;71.02
47811;BME280;33575;52.600;7.318;2023-04-22T11:18:19;100442.17;;;19.42;70.05
47811;BME280;33575;52.600;7.318;2023-04-22T11:20:47;100443.02;;;19.35;69.14
47811;BME280;33575;52.600;7.318;2023-04-22T11:23:20;100436.91;;;19.42;71.89
47811;BME280;33575;52.600;7.318;2023-04-22T11:25:53;100430.02;;;19.45;70.54
47811;BME280;33575;52.600;7.318;2023-04-22T11:28:20;100426.66;;;19.57;69.41
47811;BME280;33575;52.600;7.318;2023-04-22T11:30:49;100431.23;;;19.46;67.37
47811;BME280;33575;52.600;7.318;2023-04-22T11:33:19;100433.21;;;19.69;68.37
47811;BME280;33575;52.600;7.318;2023-04-22T11:35:50;100423.55;;;19.79;70.10
47811;BME280;33575;52.600;7.318;2023-04-22T11:38:21;100422.15;;;19.97;71.16
47811;BME280;33575;52.600;7.318;2023-04-22T11:40:54;100423.27;;;20.11;68.76
47811;BME280;33575;52.600;7.318;2023-04-22T11:43:22;100421.83;;;20.16;67.46
47811;BME280;33575;52.600;7.318;2023-04-22T11:45:55;100416.57;;;20.10;68.56
47811;BME280;33575;52.600;7.318;2023-04-22T11:48:22;100418.66;;;20.13;68.10
47811;BME280;33575;52.600;7.318;2023-04-22T11:53:23;100419.83;;;19.97;67.72
47811;BME280;33575;52.600;7.318;2023-04-22T11:55:53;100416.65;;;19.86;66.84
47811;BME280;33575;52.600;7.318;2023-04-22T11:58:26;100413.81;;;19.90;69.92
47811;BME280;33575;52.600;7.318;2023-04-22T12:00:57;100411.14;;;19.93;69.61
47811;BME280;33575;52.600;7.318;2023-04-22T12:03:26;100404.54;;;20.01;69.49
47811;BME280;33575;52.600;7.318;2023-04-22T12:05:56;100401.25;;;20.06;68.79
47811;BME280;33575;52.600;7.318;2023-04-22T12:08:30;100400.62;;;20.19;69.19
47811;BME280;33575;52.600;7.318;2023-04-22T12:10:57;100397.76;;;20.27;71.52
47811;BME280;33575;52.600;7.318;2023-04-22T12:13:28;100394.77;;;20.33;68.69
47811;BME280;33575;52.600;7.318;2023-04-22T12:15:58;100392.00;;;20.36;68.46
47811;BME280;33575;52.600;7.318;2023-04-22T12:18:28;100390.99;;;20.40;70.70
47811;BME280;33575;52.600;7.318;2023-04-22T12:20:59;100393.77;;;20.62;69.94
47811;BME280;33575;52.600;7.318;2023-04-22T12:23:28;100393.37;;;20.76;69.61
47811;BME280;33575;52.600;7.318;2023-04-22T12:25:58;100393.02;;;20.84;68.81
47811;BME280;33575;52.600;7.318;2023-04-22T12:28:29;100391.25;;;20.79;67.94
47811;BME280;33575;52.600;7.318;2023-04-22T12:30:59;100387.51;;;20.63;66.89
47811;BME280;33575;52.600;7.318;2023-04-22T12:33:29;100381.72;;;20.44;67.12
47811;BME280;33575;52.600;7.318;2023-04-22T12:35:59;100377.65;;;20.44;69.07
47811;BME280;33575;52.600;7.318;2023-04-22T12:38:30;100370.79;;;20.41;68.43
47811;BME280;33575;52.600;7.318;2023-04-22T12:41:01;100373.21;;;20.31;68.61
47811;BME280;33575;52.600;7.318;2023-04-22T12:43:32;100371.99;;;20.30;67.12
47811;BME280;33575;52.600;7.318;2023-04-22T12:46:02;100364.89;;;20.34;66.71
47811;BME280;33575;52.600;7.318;2023-04-22T12:48:32;100366.99;;;20.33;68.03
47811;BME280;33575;52.600;7.318;2023-04-22T12:51:03;100365.49;;;20.34;67.58
47811;BME280;33575;52.600;7.318;2023-04-22T12:53:33;100357.13;;;20.29;67.22
47811;BME280;33575;52.600;7.318;2023-04-22T12:56:03;100353.91;;;20.25;67.58
47811;BME280;33575;52.600;7.318;2023-04-22T12:58:33;100352.07;;;20.24;67.08
47811;BME280;33575;52.600;7.318;2023-04-22T13:01:04;100348.69;;;20.32;70.11
47811;BME280;33575;52.600;7.318;2023-04-22T13:03:34;100351.82;;;20.49;70.68
47811;BME280;33575;52.600;7.318;2023-04-22T13:06:04;100347.51;;;20.65;68.68
47811;BME280;33575;52.600;7.318;2023-04-22T13:08:34;100346.98;;;20.64;67.64
47811;BME280;33575;52.600;7.318;2023-04-22T13:11:04;100340.15;;;20.72;67.43
47811;BME280;33575;52.600;7.318;2023-04-22T13:13:35;100338.49;;;20.85;68.85
47811;BME280;33575;52.600;7.318;2023-04-22T13:16:05;100339.95;;;20.99;68.67